sensor_id;sensor_type;location;lat;lon;timestamp;P1;durP1;ratioP1;P2;durP2;ratioP2
261;SDS011;114;48.260;10.988;2022-11-20T00:01:16;2.83;;;2.57;;
261;SDS011;114;48.260;10.988;2022-11-20T00:03:47;3.57;;;3.00;;
261;SDS011;114;48.260;10.988;2022-11-20T00:06:16;3.03;;;2.83;;
261;SDS011;114;48.260;10.988;2022-11-20T00:08:43;3.20;;;3.00;;
261;SDS011;114;48.260;10.988;2022-11-20T00:11:14;4.37;;;3.50;;
261;SDS011;114;48.260;10.988;2022-11-20T00:16:14;3.10;;;2.90;;
261;SDS011;114;48.260;10.988;2022-11-20T00:18:41;4.30;;;3.90;;
261;SDS011;114;48.260;10.988;2022-11-20T00:21:13;3.53;;;3.23;;
261;SDS011;114;48.260;10.988;2022-11-20T00:23:44;3.57;;;3.40;;
261;SDS011;114;48.260;10.988;2022-11-20T00:26:12;3.43;;;2.90;;
261;SDS011;114;48.260;10.988;2022-11-20T00:28:40;2.83;;;2.73;;
261;SDS011;114;48.260;10.988;2022-11-20T00:31:08;3.57;;;3.30;;
261;SDS011;114;48.260;10.988;2022-11-20T00:33:39;3.37;;;3.17;;
261;SDS011;114;48.260;10.988;2022-11-20T00:36:07;5.13;;;3.00;;
261;SDS011;114;48.260;10.988;2022-11-20T00:38:36;5.20;;;3.00;;
261;SDS011;114;48.260;10.988;2022-11-20T00:41:04;3.73;;;3.43;;
261;SDS011;114;48.260;10.988;2022-11-20T00:43:31;3.97;;;3.47;;
261;SDS011;114;48.260;10.988;2022-11-20T00:45:59;4.67;;;4.20;;
261;SDS011;114;48.260;10.988;2022-11-20T00:48:27;8.20;;;3.33;;
261;SDS011;114;48.260;10.988;2022-11-20T00:50:53;3.17;;;2.97;;
261;SDS011;114;48.260;10.988;2022-11-20T00:53:20;8.10;;;4.50;;
261;SDS011;114;48.260;10.988;2022-11-20T00:55:56;5.40;;;4.17;;
261;SDS011;114;48.260;10.988;2022-11-20T00:58:30;4.10;;;3.90;;
261;SDS011;114;48.260;10.988;2022-11-20T01:01:06;5.67;;;3.57;;
261;SDS011;114;48.260;10.988;2022-11-20T01:03:34;4.33;;;4.03;;
261;SDS011;114;48.260;10.988;2022-11-20T01:06:06;3.97;;;3.77;;
261;SDS011;114;48.260;10.988;2022-11-20T01:08:37;4.47;;;3.57;;
261;SDS011;114;48.260;10.988;2022-11-20T01:11:04;4.20;;;3.80;;
261;SDS011;114;48.260;10.988;2022-11-20T01:13:33;4.03;;;3.63;;
261;SDS011;114;48.260;10.988;2022-11-20T01:16:03;3.90;;;3.50;;
261;SDS011;114;48.260;10.988;2022-11-20T01:18:37;3.83;;;3.63;;
261;SDS011;114;48.260;10.988;2022-11-20T01:21:06;4.10;;;3.80;;
261;SDS011;114;48.260;10.988;2022-11-20T01:23:36;3.60;;;3.40;;
261;SDS011;114;48.260;10.988;2022-11-20T01:26:05;3.83;;;3.53;;
261;SDS011;114;48.260;10.988;2022-11-20T01:28:33;3.67;;;3.43;;
261;SDS011;114;48.260;10.988;2022-11-20T01:31:01;6.20;;;4.03;;
261;SDS011;114;48.260;10.988;2022-11-20T01:33:28;3.67;;;3.47;;
261;SDS011;114;48.260;10.988;2022-11-20T01:35:53;3.60;;;3.33;;
261;SDS011;114;48.260;10.988;2022-11-20T01:38:30;4.60;;;4.00;;
261;SDS011;114;48.260;10.988;2022-11-20T01:40:56;5.00;;;3.63;;
261;SDS011;114;48.260;10.988;2022-11-20T01:43:21;3.87;;;3.60;;
261;SDS011;114;48.260;10.988;2022-11-20T01:51:24;5.67;;;4.13;;
261;SDS011;114;48.260;10.988;2022-11-20T01:53:58;5.43;;;4.47;;
261;SDS011;114;48.260;10.988;2022-11-20T01:56:28;4.60;;;4.30;;
261;SDS011;114;48.260;10.988;2022-11-20T01:58:59;4.60;;;4.30;;
261;SDS011;114;48.260;10.988;2022-11-20T02:01:30;7.80;;;4.20;;
261;SDS011;114;48.260;10.988;2022-11-20T02:03:55;4.47;;;4.07;;
261;SDS011;114;48.260;10.988;2022-11-20T02:06:40;5.17;;;4.70;;
261;SDS011;114;48.260;10.988;2022-11-20T02:09:13;4.43;;;4.13;;
261;SDS011;114;48.260;10.988;2022-11-20T02:11:39;4.60;;;4.20;;
261;SDS011;114;48.260;10.988;2022-11-20T02:14:06;5.57;;;4.10;;
261;SDS011;114;48.260;10.988;2022-11-20T02:16:34;4.70;;;4.40;;
261;SDS011;114;48.260;10.988;2022-11-20T02:19:04;4.70;;;4.30;;
261;SDS011;114;48.260;10.988;2022-11-20T02:24:14;4.87;;;4.47;;
261;SDS011;114;48.260;10.988;2022-11-20T02:26:53;4.83;;;4.20;;
261;SDS011;114;48.260;10.988;2022-11-20T02:32:19;5.67;;;4.73;;
261;SDS011;114;48.260;10.988;2022-11-20T02:34:48;4.40;;;3.20;;
261;SDS011;114;48.260;10.988;2022-11-20T02:37:14;4.10;;;3.80;;
261;SDS011;114;48.260;10.988;2022-11-20T02:39:40;5.20;;;3.90;;
261;SDS011;114;48.260;10.988;2022-11-20T02:42:09;4.50;;;4.10;;
261;SDS011;114;48.260;10.988;2022-11-20T02:44:36;4.73;;;4.37;;
261;SDS011;114;48.260;10.988;2022-11-20T02:47:01;4.50;;;4.10;;
261;SDS011;114;48.260;10.988;2022-11-20T02:49:28;4.00;;;3.80;;
261;SDS011;114;48.260;10.988;2022-11-20T02:51:54;7.93;;;3.80;;
261;SDS011;114;48.260;10.988;2022-11-20T02:54:19;4.97;;;3.77;;
261;SDS011;114;48.260;10.988;2022-11-20T02:56:45;4.20;;;3.90;;
261;SDS011;114;48.260;10.988;2022-11-20T02:59:11;4.70;;;3.90;;
261;SDS011;114;48.260;10.988;2022-11-20T03:01:37;4.30;;;4.00;;
261;SDS011;114;48.260;10.988;2022-11-20T03:04:03;4.53;;;4.20;;
261;SDS011;114;48.260;10.988;2022-11-20T03:06:29;6.10;;;4.70;;
261;SDS011;114;48.260;10.988;2022-11-20T03:08:55;4.70;;;3.63;;
261;SDS011;114;48.260;10.988;2022-11-20T03:11:22;4.13;;;3.83;;
261;SDS011;114;48.260;10.988;2022-11-20T03:13:47;6.37;;;4.50;;
261;SDS011;114;48.260;10.988;2022-11-20T03:16:17;3.80;;;3.57;;
261;SDS011;114;48.260;10.988;2022-11-20T03:18:46;5.53;;;4.27;;
261;SDS011;114;48.260;10.988;2022-11-20T03:21:13;4.53;;;4.13;;
261;SDS011;114;48.260;10.988;2022-11-20T03:23:39;4.43;;;4.20;;
261;SDS011;114;48.260;10.988;2022-11-20T03:26:15;4.27;;;3.93;;
261;SDS011;114;48.260;10.988;2022-11-20T03:28:50;3.43;;;3.30;;
261;SDS011;114;48.260;10.988;2022-11-20T03:31:43;3.90;;;3.67;;
261;SDS011;114;48.260;10.988;2022-11-20T03:34:10;4.17;;;3.70;;
261;SDS011;114;48.260;10.988;2022-11-20T03:36:40;4.13;;;3.83;;
261;SDS011;114;48.260;10.988;2022-11-20T03:39:07;3.77;;;3.57;;
261;SDS011;114;48.260;10.988;2022-11-20T03:41:37;13.77;;;4.20;;
261;SDS011;114;48.260;10.988;2022-11-20T03:44:05;5.00;;;3.43;;
261;SDS011;114;48.260;10.988;2022-11-20T03:46:32;3.30;;;3.13;;
261;SDS011;114;48.260;10.988;2022-11-20T03:48:58;3.73;;;3.50;;
261;SDS011;114;48.260;10.988;2022-11-20T03:51:25;4.30;;;4.00;;
261;SDS011;114;48.260;10.988;2022-11-20T03:53:53;3.17;;;2.93;;
261;SDS011;114;48.260;10.988;2022-11-20T03:56:23;5.30;;;3.83;;
261;SDS011;114;48.260;10.988;2022-11-20T03:58:53;4.40;;;3.47;;
261;SDS011;114;48.260;10.988;2022-11-20T04:01:21;3.43;;;3.20;;
261;SDS011;114;48.260;10.988;2022-11-20T04:03:48;4.10;;;3.90;;
261;SDS011;114;48.260;10.988;2022-11-20T04:08:43;4.67;;;4.23;;
261;SDS011;114;48.260;10.988;2022-11-20T04:11:10;3.80;;;3.60;;
261;SDS011;114;48.260;10.988;2022-11-20T04:13:41;10.90;;;3.80;;
261;SDS011;114;48.260;10.988;2022-11-20T04:16:16;3.30;;;3.10;;
261;SDS011;114;48.260;10.988;2022-11-20T04:18:42;4.10;;;3.80;;
261;SDS011;114;48.260;10.988;2022-11-20T04:21:08;3.70;;;3.50;;
261;SDS011;114;48.260;10.988;2022-11-20T04:23:35;3.80;;;3.60;;
261;SDS011;114;48.260;10.988;2022-11-20T04:26:02;4.17;;;3.87;;
261;SDS011;114;48.260;10.988;2022-11-20T04:28:29;3.87;;;3.67;;
261;SDS011;114;48.260;10.988;2022-11-20T04:31:00;3.33;;;3.13;;
261;SDS011;114;48.260;10.988;2022-11-20T04:33:33;5.30;;;3.60;;
261;SDS011;114;48.260;10.988;2022-11-20T04:36:00;4.37;;;3.97;;
261;SDS011;114;48.260;10.988;2022-11-20T04:38:28;8.03;;;4.00;;
261;SDS011;114;48.260;10.988;2022-11-20T04:41:01;3.60;;;3.40;;
261;SDS011;114;48.260;10.988;2022-11-20T04:43:29;3.97;;;3.77;;
261;SDS011;114;48.260;10.988;2022-11-20T04:45:55;3.63;;;3.43;;
261;SDS011;114;48.260;10.988;2022-11-20T04:48:23;4.17;;;3.87;;
261;SDS011;114;48.260;10.988;2022-11-20T04:50:49;2.93;;;2.73;;
261;SDS011;114;48.260;10.988;2022-11-20T04:53:16;3.67;;;3.47;;
261;SDS011;114;48.260;10.988;2022-11-20T04:55:41;3.10;;;2.53;;
261;SDS011;114;48.260;10.988;2022-11-20T04:58:07;2.93;;;2.60;;
261;SDS011;114;48.260;10.988;2022-11-20T05:00:33;3.90;;;3.60;;
261;SDS011;114;48.260;10.988;2022-11-20T05:02:59;3.43;;;3.20;;
261;SDS011;114;48.260;10.988;2022-11-20T05:05:25;2.67;;;2.57;;
261;SDS011;114;48.260;10.988;2022-11-20T05:07:51;8.70;;;3.10;;
261;SDS011;114;48.260;10.988;2022-11-20T05:10:17;3.90;;;2.90;;
261;SDS011;114;48.260;10.988;2022-11-20T05:12:43;3.20;;;2.90;;
261;SDS011;114;48.260;10.988;2022-11-20T05:15:08;5.67;;;3.47;;
261;SDS011;114;48.260;10.988;2022-11-20T05:17:34;2.80;;;2.57;;
261;SDS011;114;48.260;10.988;2022-11-20T05:20:00;4.00;;;2.90;;
261;SDS011;114;48.260;10.988;2022-11-20T05:22:26;3.20;;;3.00;;
261;SDS011;114;48.260;10.988;2022-11-20T05:24:52;3.10;;;2.90;;
261;SDS011;114;48.260;10.988;2022-11-20T05:27:18;2.80;;;2.70;;
261;SDS011;114;48.260;10.988;2022-11-20T05:29:44;3.10;;;2.80;;
261;SDS011;114;48.260;10.988;2022-11-20T05:32:09;3.20;;;2.90;;
261;SDS011;114;48.260;10.988;2022-11-20T05:34:35;3.30;;;3.10;;
261;SDS011;114;48.260;10.988;2022-11-20T05:37:01;3.40;;;3.20;;
261;SDS011;114;48.260;10.988;2022-11-20T05:39:29;3.93;;;2.67;;
261;SDS011;114;48.260;10.988;2022-11-20T05:41:54;3.23;;;3.00;;
261;SDS011;114;48.260;10.988;2022-11-20T05:44:39;3.30;;;3.10;;
261;SDS011;114;48.260;10.988;2022-11-20T05:47:04;3.63;;;3.37;;
261;SDS011;114;48.260;10.988;2022-11-20T05:49:30;3.13;;;2.83;;
261;SDS011;114;48.260;10.988;2022-11-20T05:51:56;3.00;;;2.80;;
261;SDS011;114;48.260;10.988;2022-11-20T05:54:23;2.80;;;2.70;;
261;SDS011;114;48.260;10.988;2022-11-20T05:56:49;2.80;;;2.70;;
261;SDS011;114;48.260;10.988;2022-11-20T05:59:15;3.47;;;2.87;;
261;SDS011;114;48.260;10.988;2022-11-20T06:01:42;3.10;;;3.00;;
261;SDS011;114;48.260;10.988;2022-11-20T06:04:07;3.87;;;2.90;;
261;SDS011;114;48.260;10.988;2022-11-20T06:06:33;2.50;;;2.40;;
261;SDS011;114;48.260;10.988;2022-11-20T06:08:59;2.73;;;2.63;;
261;SDS011;114;48.260;10.988;2022-11-20T06:11:24;3.03;;;2.83;;
261;SDS011;114;48.260;10.988;2022-11-20T06:13:50;3.50;;;3.17;;
261;SDS011;114;48.260;10.988;2022-11-20T06:16:17;2.60;;;2.50;;
261;SDS011;114;48.260;10.988;2022-11-20T06:18:44;3.50;;;3.17;;
261;SDS011;114;48.260;10.988;2022-11-20T06:21:12;13.93;;;2.93;;
261;SDS011;114;48.260;10.988;2022-11-20T06:23:42;3.20;;;3.00;;
261;SDS011;114;48.260;10.988;2022-11-20T06:26:10;2.77;;;2.67;;
261;SDS011;114;48.260;10.988;2022-11-20T06:28:37;3.77;;;3.57;;
261;SDS011;114;48.260;10.988;2022-11-20T06:31:03;3.10;;;2.90;;
261;SDS011;114;48.260;10.988;2022-11-20T06:33:31;3.40;;;3.20;;
261;SDS011;114;48.260;10.988;2022-11-20T06:35:58;4.90;;;3.80;;
261;SDS011;114;48.260;10.988;2022-11-20T06:38:26;3.60;;;3.30;;
261;SDS011;114;48.260;10.988;2022-11-20T06:40:53;3.50;;;3.30;;
261;SDS011;114;48.260;10.988;2022-11-20T06:43:19;3.33;;;3.13;;
261;SDS011;114;48.260;10.988;2022-11-20T06:45:57;3.83;;;3.53;;
261;SDS011;114;48.260;10.988;2022-11-20T06:48:24;3.90;;;3.60;;
261;SDS011;114;48.260;10.988;2022-11-20T06:50:51;3.70;;;3.50;;
261;SDS011;114;48.260;10.988;2022-11-20T06:53:17;3.60;;;3.40;;
261;SDS011;114;48.260;10.988;2022-11-20T06:55:45;3.77;;;3.53;;
261;SDS011;114;48.260;10.988;2022-11-20T06:58:13;3.10;;;3.00;;
261;SDS011;114;48.260;10.988;2022-11-20T07:00:40;3.17;;;2.97;;
261;SDS011;114;48.260;10.988;2022-11-20T07:03:06;3.13;;;3.03;;
261;SDS011;114;48.260;10.988;2022-11-20T07:05:34;4.17;;;3.77;;
261;SDS011;114;48.260;10.988;2022-11-20T07:08:01;3.63;;;3.43;;
261;SDS011;114;48.260;10.988;2022-11-20T07:10:28;5.23;;;3.60;;
261;SDS011;114;48.260;10.988;2022-11-20T07:12:54;4.43;;;3.93;;
261;SDS011;114;48.260;10.988;2022-11-20T07:15:20;4.37;;;3.97;;
261;SDS011;114;48.260;10.988;2022-11-20T07:17:47;3.87;;;3.60;;
261;SDS011;114;48.260;10.988;2022-11-20T07:20:13;6.60;;;3.50;;
261;SDS011;114;48.260;10.988;2022-11-20T07:22:40;3.13;;;3.00;;
261;SDS011;114;48.260;10.988;2022-11-20T07:25:07;2.90;;;2.70;;
261;SDS011;114;48.260;10.988;2022-11-20T07:27:34;3.33;;;3.13;;
261;SDS011;114;48.260;10.988;2022-11-20T07:30:02;3.30;;;3.00;;
261;SDS011;114;48.260;10.988;2022-11-20T07:32:28;3.47;;;3.27;;
261;SDS011;114;48.260;10.988;2022-11-20T07:34:55;5.03;;;3.67;;
261;SDS011;114;48.260;10.988;2022-11-20T07:37:21;3.67;;;3.40;;
261;SDS011;114;48.260;10.988;2022-11-20T07:39:46;3.73;;;3.40;;
261;SDS011;114;48.260;10.988;2022-11-20T07:42:12;3.70;;;3.50;;
261;SDS011;114;48.260;10.988;2022-11-20T07:44:38;3.30;;;3.10;;
261;SDS011;114;48.260;10.988;2022-11-20T07:47:04;3.30;;;3.10;;
261;SDS011;114;48.260;10.988;2022-11-20T07:49:30;3.73;;;3.53;;
261;SDS011;114;48.260;10.988;2022-11-20T07:51:55;4.27;;;3.90;;
261;SDS011;114;48.260;10.988;2022-11-20T07:54:21;4.73;;;4.27;;
261;SDS011;114;48.260;10.988;2022-11-20T07:56:48;4.20;;;3.80;;
261;SDS011;114;48.260;10.988;2022-11-20T07:59:14;9.93;;;4.00;;
261;SDS011;114;48.260;10.988;2022-11-20T08:01:41;3.60;;;3.40;;
261;SDS011;114;48.260;10.988;2022-11-20T08:04:08;3.43;;;3.23;;
261;SDS011;114;48.260;10.988;2022-11-20T08:06:36;5.97;;;3.60;;
261;SDS011;114;48.260;10.988;2022-11-20T08:09:03;3.87;;;3.60;;
261;SDS011;114;48.260;10.988;2022-11-20T08:11:28;6.30;;;4.90;;
261;SDS011;114;48.260;10.988;2022-11-20T08:14:13;4.90;;;4.40;;
261;SDS011;114;48.260;10.988;2022-11-20T08:16:39;7.57;;;6.40;;
261;SDS011;114;48.260;10.988;2022-11-20T08:19:06;6.80;;;4.50;;
261;SDS011;114;48.260;10.988;2022-11-20T08:21:32;5.77;;;3.47;;
261;SDS011;114;48.260;10.988;2022-11-20T08:23:58;5.30;;;4.90;;
261;SDS011;114;48.260;10.988;2022-11-20T08:26:24;8.60;;;6.53;;
261;SDS011;114;48.260;10.988;2022-11-20T08:28:55;8.10;;;6.67;;
261;SDS011;114;48.260;10.988;2022-11-20T08:31:22;20.90;;;11.80;;
261;SDS011;114;48.260;10.988;2022-11-20T08:33:48;5.00;;;4.60;;
261;SDS011;114;48.260;10.988;2022-11-20T08:36:14;9.37;;;6.60;;
261;SDS011;114;48.260;10.988;2022-11-20T08:38:40;16.10;;;7.90;;
261;SDS011;114;48.260;10.988;2022-11-20T08:41:06;16.53;;;7.97;;
261;SDS011;114;48.260;10.988;2022-11-20T08:43:53;4.30;;;4.00;;
261;SDS011;114;48.260;10.988;2022-11-20T08:46:20;4.17;;;3.87;;
261;SDS011;114;48.260;10.988;2022-11-20T08:48:47;3.77;;;3.47;;
261;SDS011;114;48.260;10.988;2022-11-20T08:51:13;3.80;;;3.50;;
261;SDS011;114;48.260;10.988;2022-11-20T08:53:39;4.90;;;3.63;;
261;SDS011;114;48.260;10.988;2022-11-20T08:56:05;4.60;;;4.13;;
261;SDS011;114;48.260;10.988;2022-11-20T08:58:31;5.43;;;4.60;;
261;SDS011;114;48.260;10.988;2022-11-20T09:00:57;4.43;;;4.03;;
261;SDS011;114;48.260;10.988;2022-11-20T09:03:23;3.70;;;3.50;;
261;SDS011;114;48.260;10.988;2022-11-20T09:06:04;3.33;;;3.13;;
261;SDS011;114;48.260;10.988;2022-11-20T09:08:32;3.70;;;3.20;;
261;SDS011;114;48.260;10.988;2022-11-20T09:10:59;3.33;;;3.10;;
261;SDS011;114;48.260;10.988;2022-11-20T09:13:25;3.23;;;3.00;;
261;SDS011;114;48.260;10.988;2022-11-20T09:15:54;3.40;;;3.10;;
261;SDS011;114;48.260;10.988;2022-11-20T09:18:22;2.40;;;2.30;;
261;SDS011;114;48.260;10.988;2022-11-20T09:20:49;2.90;;;2.80;;
261;SDS011;114;48.260;10.988;2022-11-20T09:23:15;5.20;;;3.30;;
261;SDS011;114;48.260;10.988;2022-11-20T09:25:42;3.30;;;3.10;;
261;SDS011;114;48.260;10.988;2022-11-20T09:28:09;2.70;;;2.53;;
261;SDS011;114;48.260;10.988;2022-11-20T09:30:35;6.40;;;2.37;;
261;SDS011;114;48.260;10.988;2022-11-20T09:33:07;3.23;;;3.00;;
261;SDS011;114;48.260;10.988;2022-11-20T09:38:10;2.50;;;2.30;;
261;SDS011;114;48.260;10.988;2022-11-20T09:40:37;2.80;;;2.60;;
261;SDS011;114;48.260;10.988;2022-11-20T09:51:16;2.00;;;1.87;;
261;SDS011;114;48.260;10.988;2022-11-20T09:56:40;4.17;;;2.00;;
261;SDS011;114;48.260;10.988;2022-11-20T09:59:43;2.00;;;1.60;;
261;SDS011;114;48.260;10.988;2022-11-20T10:02:08;2.03;;;1.80;;
261;SDS011;114;48.260;10.988;2022-11-20T10:05:03;2.53;;;2.33;;
261;SDS011;114;48.260;10.988;2022-11-20T10:10:44;4.37;;;4.00;;
261;SDS011;114;48.260;10.988;2022-11-20T10:13:34;2.37;;;2.17;;
261;SDS011;114;48.260;10.988;2022-11-20T10:30:15;2.90;;;1.80;;
261;SDS011;114;48.260;10.988;2022-11-20T10:32:47;1.70;;;1.50;;
261;SDS011;114;48.260;10.988;2022-11-20T10:35:44;1.37;;;1.27;;
261;SDS011;114;48.260;10.988;2022-11-20T10:38:17;2.43;;;1.40;;
261;SDS011;114;48.260;10.988;2022-11-20T10:41:01;1.57;;;1.00;;
261;SDS011;114;48.260;10.988;2022-11-20T10:44:00;4.83;;;2.00;;
261;SDS011;114;48.260;10.988;2022-11-20T10:46:47;2.37;;;2.17;;
261;SDS011;114;48.260;10.988;2022-11-20T10:49:14;1.00;;;0.90;;
261;SDS011;114;48.260;10.988;2022-11-20T10:51:59;2.70;;;1.80;;
261;SDS011;114;48.260;10.988;2022-11-20T10:57:54;1.43;;;1.43;;
261;SDS011;114;48.260;10.988;2022-11-20T11:00:32;1.97;;;1.10;;
261;SDS011;114;48.260;10.988;2022-11-20T11:03:00;0.90;;;0.90;;
261;SDS011;114;48.260;10.988;2022-11-20T11:06:06;0.90;;;0.90;;
261;SDS011;114;48.260;10.988;2022-11-20T11:08:53;0.93;;;0.93;;
261;SDS011;114;48.260;10.988;2022-11-20T11:11:24;1.30;;;1.20;;
261;SDS011;114;48.260;10.988;2022-11-20T11:13:53;1.00;;;1.00;;
261;SDS011;114;48.260;10.988;2022-11-20T11:16:32;1.27;;;1.27;;
261;SDS011;114;48.260;10.988;2022-11-20T11:19:05;1.33;;;1.10;;
261;SDS011;114;48.260;10.988;2022-11-20T11:21:31;1.23;;;1.23;;
261;SDS011;114;48.260;10.988;2022-11-20T11:24:14;1.63;;;1.53;;
261;SDS011;114;48.260;10.988;2022-11-20T11:26:59;0.93;;;0.93;;
261;SDS011;114;48.260;10.988;2022-11-20T11:29:30;1.33;;;1.23;;
261;SDS011;114;48.260;10.988;2022-11-20T11:32:07;3.03;;;1.80;;
261;SDS011;114;48.260;10.988;2022-11-20T11:34:39;1.77;;;1.63;;
261;SDS011;114;48.260;10.988;2022-11-20T11:37:28;6.53;;;4.70;;
261;SDS011;114;48.260;10.988;2022-11-20T11:39:58;1.13;;;0.97;;
261;SDS011;114;48.260;10.988;2022-11-20T11:42:25;1.80;;;1.70;;
261;SDS011;114;48.260;10.988;2022-11-20T12:06:48;1.27;;;1.27;;
261;SDS011;114;48.260;10.988;2022-11-20T12:09:18;0.93;;;0.93;;
261;SDS011;114;48.260;10.988;2022-11-20T12:11:53;1.60;;;1.50;;
261;SDS011;114;48.260;10.988;2022-11-20T12:14:50;1.77;;;1.67;;
261;SDS011;114;48.260;10.988;2022-11-20T12:19:49;1.17;;;1.17;;
261;SDS011;114;48.260;10.988;2022-11-20T12:25:19;2.10;;;1.40;;
261;SDS011;114;48.260;10.988;2022-11-20T12:39:24;2.73;;;2.57;;
261;SDS011;114;48.260;10.988;2022-11-20T12:42:23;1.37;;;1.27;;
261;SDS011;114;48.260;10.988;2022-11-20T12:57:18;1.50;;;1.40;;
261;SDS011;114;48.260;10.988;2022-11-20T13:08:03;6.87;;;1.63;;
261;SDS011;114;48.260;10.988;2022-11-20T13:16:36;1.80;;;1.70;;
261;SDS011;114;48.260;10.988;2022-11-20T13:19:23;1.60;;;1.60;;
261;SDS011;114;48.260;10.988;2022-11-20T13:21:49;3.27;;;1.67;;
261;SDS011;114;48.260;10.988;2022-11-20T13:29:25;5.93;;;4.67;;
261;SDS011;114;48.260;10.988;2022-11-20T13:32:00;1.67;;;1.60;;
261;SDS011;114;48.260;10.988;2022-11-20T13:34:31;1.50;;;1.43;;
261;SDS011;114;48.260;10.988;2022-11-20T13:36:59;6.23;;;2.33;;
261;SDS011;114;48.260;10.988;2022-11-20T13:39:36;3.27;;;1.50;;
261;SDS011;114;48.260;10.988;2022-11-20T13:45:00;2.67;;;2.47;;
261;SDS011;114;48.260;10.988;2022-11-20T13:47:28;4.30;;;3.77;;
261;SDS011;114;48.260;10.988;2022-11-20T13:49:58;1.30;;;1.30;;
261;SDS011;114;48.260;10.988;2022-11-20T13:52:30;2.73;;;2.53;;
261;SDS011;114;48.260;10.988;2022-11-20T13:55:19;3.10;;;2.90;;
261;SDS011;114;48.260;10.988;2022-11-20T14:00:44;1.97;;;1.87;;
261;SDS011;114;48.260;10.988;2022-11-20T14:03:28;3.10;;;1.93;;
261;SDS011;114;48.260;10.988;2022-11-20T14:06:03;1.40;;;1.33;;
261;SDS011;114;48.260;10.988;2022-11-20T14:08:53;1.17;;;1.17;;
261;SDS011;114;48.260;10.988;2022-11-20T14:11:30;1.60;;;1.60;;
261;SDS011;114;48.260;10.988;2022-11-20T14:14:01;5.90;;;1.80;;
261;SDS011;114;48.260;10.988;2022-11-20T14:16:41;3.20;;;2.90;;
261;SDS011;114;48.260;10.988;2022-11-20T14:21:49;3.13;;;1.67;;
261;SDS011;114;48.260;10.988;2022-11-20T14:24:21;1.53;;;1.43;;
261;SDS011;114;48.260;10.988;2022-11-20T14:26:50;2.80;;;2.57;;
261;SDS011;114;48.260;10.988;2022-11-20T14:29:21;12.47;;;5.53;;
261;SDS011;114;48.260;10.988;2022-11-20T14:31:52;15.13;;;4.50;;
261;SDS011;114;48.260;10.988;2022-11-20T14:34:25;3.20;;;2.90;;
261;SDS011;114;48.260;10.988;2022-11-20T14:36:57;4.10;;;3.70;;
261;SDS011;114;48.260;10.988;2022-11-20T14:39:29;8.30;;;4.20;;
261;SDS011;114;48.260;10.988;2022-11-20T14:42:03;4.37;;;3.83;;
261;SDS011;114;48.260;10.988;2022-11-20T14:44:42;3.03;;;2.50;;
261;SDS011;114;48.260;10.988;2022-11-20T14:47:11;2.03;;;1.93;;
261;SDS011;114;48.260;10.988;2022-11-20T14:49:40;2.40;;;1.77;;
261;SDS011;114;48.260;10.988;2022-11-20T14:52:20;2.33;;;2.17;;
261;SDS011;114;48.260;10.988;2022-11-20T14:54:49;1.73;;;1.63;;
261;SDS011;114;48.260;10.988;2022-11-20T15:00:17;1.20;;;1.10;;
261;SDS011;114;48.260;10.988;2022-11-20T15:02:46;3.23;;;0.77;;
261;SDS011;114;48.260;10.988;2022-11-20T15:05:15;2.50;;;0.90;;
261;SDS011;114;48.260;10.988;2022-11-20T15:10:48;0.73;;;0.73;;
261;SDS011;114;48.260;10.988;2022-11-20T15:13:24;1.20;;;1.10;;
261;SDS011;114;48.260;10.988;2022-11-20T15:16:09;1.80;;;1.70;;
261;SDS011;114;48.260;10.988;2022-11-20T15:21:16;3.57;;;2.67;;
261;SDS011;114;48.260;10.988;2022-11-20T15:23:46;2.90;;;2.60;;
261;SDS011;114;48.260;10.988;2022-11-20T15:26:20;1.40;;;1.30;;
261;SDS011;114;48.260;10.988;2022-11-20T15:28:57;7.50;;;3.70;;
261;SDS011;114;48.260;10.988;2022-11-20T15:31:25;1.67;;;1.37;;
261;SDS011;114;48.260;10.988;2022-11-20T15:33:53;1.57;;;1.00;;
261;SDS011;114;48.260;10.988;2022-11-20T15:36:30;1.30;;;1.20;;
261;SDS011;114;48.260;10.988;2022-11-20T15:38:59;1.73;;;1.57;;
261;SDS011;114;48.260;10.988;2022-11-20T15:41:28;2.40;;;2.20;;
261;SDS011;114;48.260;10.988;2022-11-20T15:43:56;4.00;;;3.70;;
261;SDS011;114;48.260;10.988;2022-11-20T15:46:25;4.83;;;4.33;;
261;SDS011;114;48.260;10.988;2022-11-20T15:48:56;5.73;;;3.40;;
261;SDS011;114;48.260;10.988;2022-11-20T15:51:27;4.63;;;3.87;;
261;SDS011;114;48.260;10.988;2022-11-20T15:53:58;7.50;;;4.50;;
261;SDS011;114;48.260;10.988;2022-11-20T15:56:25;3.90;;;3.60;;
261;SDS011;114;48.260;10.988;2022-11-20T15:58:53;4.80;;;2.70;;
261;SDS011;114;48.260;10.988;2022-11-20T16:01:21;3.40;;;3.10;;
261;SDS011;114;48.260;10.988;2022-11-20T16:03:48;7.90;;;3.03;;
261;SDS011;114;48.260;10.988;2022-11-20T16:06:20;3.03;;;2.83;;
261;SDS011;114;48.260;10.988;2022-11-20T16:08:46;3.53;;;3.33;;
261;SDS011;114;48.260;10.988;2022-11-20T16:11:12;6.97;;;4.43;;
261;SDS011;114;48.260;10.988;2022-11-20T16:13:40;4.67;;;2.60;;
261;SDS011;114;48.260;10.988;2022-11-20T16:16:26;3.50;;;3.20;;
261;SDS011;114;48.260;10.988;2022-11-20T16:18:57;3.13;;;2.83;;
261;SDS011;114;48.260;10.988;2022-11-20T16:21:25;5.23;;;3.53;;
261;SDS011;114;48.260;10.988;2022-11-20T16:24:00;13.77;;;8.50;;
261;SDS011;114;48.260;10.988;2022-11-20T16:26:30;9.40;;;7.73;;
261;SDS011;114;48.260;10.988;2022-11-20T16:28:58;7.13;;;6.20;;
261;SDS011;114;48.260;10.988;2022-11-20T16:31:25;8.53;;;6.33;;
261;SDS011;114;48.260;10.988;2022-11-20T16:33:52;11.10;;;6.97;;
261;SDS011;114;48.260;10.988;2022-11-20T16:36:20;7.90;;;6.20;;
261;SDS011;114;48.260;10.988;2022-11-20T16:38:51;6.50;;;5.90;;
261;SDS011;114;48.260;10.988;2022-11-20T16:41:25;10.03;;;7.47;;
261;SDS011;114;48.260;10.988;2022-11-20T16:43:55;12.70;;;10.77;;
261;SDS011;114;48.260;10.988;2022-11-20T16:46:23;11.97;;;9.83;;
261;SDS011;114;48.260;10.988;2022-11-20T16:48:53;12.80;;;10.63;;
261;SDS011;114;48.260;10.988;2022-11-20T16:51:23;7.73;;;7.03;;
261;SDS011;114;48.260;10.988;2022-11-20T16:53:50;8.40;;;6.40;;
261;SDS011;114;48.260;10.988;2022-11-20T16:56:19;6.20;;;5.60;;
261;SDS011;114;48.260;10.988;2022-11-20T16:58:49;6.60;;;5.70;;
261;SDS011;114;48.260;10.988;2022-11-20T17:01:20;8.47;;;4.60;;
261;SDS011;114;48.260;10.988;2022-11-20T17:03:57;10.33;;;7.77;;
261;SDS011;114;48.260;10.988;2022-11-20T17:06:32;10.43;;;6.60;;
261;SDS011;114;48.260;10.988;2022-11-20T17:09:05;11.50;;;7.80;;
261;SDS011;114;48.260;10.988;2022-11-20T17:11:35;9.10;;;7.30;;
261;SDS011;114;48.260;10.988;2022-11-20T17:14:04;10.30;;;7.63;;
261;SDS011;114;48.260;10.988;2022-11-20T17:16:34;10.73;;;7.87;;
261;SDS011;114;48.260;10.988;2022-11-20T17:19:04;14.47;;;9.80;;
261;SDS011;114;48.260;10.988;2022-11-20T17:21:34;15.13;;;11.43;;
261;SDS011;114;48.260;10.988;2022-11-20T17:24:04;18.73;;;12.80;;
261;SDS011;114;48.260;10.988;2022-11-20T17:26:33;23.43;;;13.10;;
261;SDS011;114;48.260;10.988;2022-11-20T17:29:04;16.40;;;11.47;;
261;SDS011;114;48.260;10.988;2022-11-20T17:31:33;23.07;;;14.63;;
261;SDS011;114;48.260;10.988;2022-11-20T17:34:04;9.77;;;7.97;;
261;SDS011;114;48.260;10.988;2022-11-20T17:36:38;10.47;;;7.80;;
261;SDS011;114;48.260;10.988;2022-11-20T17:39:06;10.70;;;7.90;;
261;SDS011;114;48.260;10.988;2022-11-20T17:41:32;12.30;;;9.60;;
261;SDS011;114;48.260;10.988;2022-11-20T17:44:01;13.20;;;8.00;;
261;SDS011;114;48.260;10.988;2022-11-20T17:46:28;6.67;;;5.33;;
261;SDS011;114;48.260;10.988;2022-11-20T17:48:58;7.70;;;5.10;;
261;SDS011;114;48.260;10.988;2022-11-20T17:51:29;9.03;;;5.90;;
261;SDS011;114;48.260;10.988;2022-11-20T17:53:57;4.20;;;3.90;;
261;SDS011;114;48.260;10.988;2022-11-20T17:56:31;3.93;;;3.63;;
261;SDS011;114;48.260;10.988;2022-11-20T17:59:16;4.43;;;4.03;;
261;SDS011;114;48.260;10.988;2022-11-20T18:01:43;5.10;;;4.00;;
261;SDS011;114;48.260;10.988;2022-11-20T18:06:37;8.40;;;5.00;;
261;SDS011;114;48.260;10.988;2022-11-20T18:09:04;5.40;;;4.00;;